createdAt,value
2018-09-27T00:02:05.742Z,3.10
2018-09-27T00:04:33.906Z,2.70
2018-09-27T00:07:02.630Z,3.03
2018-09-27T00:09:31.473Z,3.00
2018-09-27T00:11:59.974Z,3.00
2018-09-27T00:14:28.155Z,2.97
2018-09-27T00:16:56.326Z,2.90
2018-09-27T00:19:24.595Z,2.60
2018-09-27T00:22:01.488Z,2.73
2018-09-27T00:24:29.657Z,2.93
2018-09-27T00:26:57.876Z,2.63
2018-09-27T00:29:26.090Z,2.73
2018-09-27T00:31:54.250Z,3.17
2018-09-27T00:34:22.462Z,2.77
2018-09-27T00:36:50.658Z,3.40
2018-09-27T00:39:18.886Z,3.20
2018-09-27T00:41:47.447Z,3.00
2018-09-27T00:44:16.162Z,3.13
2018-09-27T00:46:44.374Z,2.87
2018-09-27T00:49:13.055Z,2.90
2018-09-27T00:54:17.343Z,3.33
2018-09-27T00:56:45.810Z,3.53
2018-09-27T00:59:14.072Z,3.57
2018-09-27T01:01:42.358Z,3.77
2018-09-27T01:04:10.962Z,3.20
2018-09-27T01:06:39.678Z,3.30
2018-09-27T01:09:08.950Z,3.20
2018-09-27T01:11:37.167Z,3.53
2018-09-27T01:14:05.821Z,3.17
2018-09-27T01:16:34.005Z,3.13
2018-09-27T01:19:02.146Z,3.30
2018-09-27T01:21:30.578Z,3.50
2018-09-27T01:23:58.930Z,3.00
2018-09-27T01:26:27.120Z,3.77
2018-09-27T01:28:55.310Z,2.60
2018-09-27T01:31:23.530Z,3.33
2018-09-27T01:33:52.330Z,3.40
2018-09-27T01:36:20.646Z,3.20
2018-09-27T01:38:49.287Z,3.37
2018-09-27T01:41:17.521Z,3.00
2018-09-27T01:43:45.687Z,3.27
2018-09-27T01:46:18.790Z,3.27
2018-09-27T01:48:46.974Z,3.30
2018-09-27T01:51:15.158Z,3.63
2018-09-27T01:53:43.358Z,3.10
2018-09-27T01:56:11.865Z,3.57
2018-09-27T01:58:40.086Z,3.10
2018-09-27T02:01:08.387Z,2.97
2018-09-27T02:03:36.556Z,2.70
2018-09-27T02:06:04.754Z,2.67
2018-09-27T02:08:32.978Z,2.77
2018-09-27T02:11:01.279Z,2.67
2018-09-27T02:13:30.425Z,2.40
2018-09-27T02:15:58.899Z,2.60
2018-09-27T02:18:27.088Z,2.70
2018-09-27T02:20:55.505Z,2.60
2018-09-27T02:23:23.694Z,2.60
2018-09-27T02:25:51.835Z,2.33
2018-09-27T02:28:20.011Z,3.13
2018-09-27T02:30:48.219Z,3.40
2018-09-27T02:33:16.518Z,2.70
2018-09-27T02:35:44.799Z,3.10
2018-09-27T02:38:13.310Z,2.90
2018-09-27T02:40:41.539Z,2.13
2018-09-27T02:43:09.770Z,3.33
2018-09-27T02:45:37.977Z,2.70
2018-09-27T02:48:06.161Z,3.33
2018-09-27T02:50:34.362Z,3.00
2018-09-27T02:53:02.608Z,2.90
2018-09-27T02:55:30.929Z,2.93
2018-09-27T02:57:59.735Z,2.93
2018-09-27T03:00:27.907Z,2.93
2018-09-27T03:02:56.111Z,3.73
2018-09-27T03:05:24.542Z,4.10
2018-09-27T03:07:52.731Z,3.37
2018-09-27T03:10:20.912Z,3.70
2018-09-27T03:12:49.139Z,3.67
2018-09-27T03:15:19.411Z,3.30
2018-09-27T03:17:47.698Z,3.30
2018-09-27T03:20:15.843Z,3.83
2018-09-27T03:22:44.062Z,3.40
2018-09-27T03:25:12.264Z,3.50
2018-09-27T03:27:40.443Z,3.97
2018-09-27T03:30:08.974Z,3.60
2018-09-27T03:32:37.743Z,4.00
2018-09-27T03:35:07.466Z,4.07
2018-09-27T03:37:35.597Z,3.60
2018-09-27T03:40:03.829Z,3.70
2018-09-27T03:42:32.382Z,3.87
2018-09-27T03:45:00.554Z,3.63
2018-09-27T03:47:28.765Z,4.43
2018-09-27T03:49:56.954Z,3.53
2018-09-27T03:52:25.106Z,3.30
2018-09-27T03:54:53.274Z,3.50
2018-09-27T03:57:23.375Z,3.30
2018-09-27T03:59:51.530Z,3.50
2018-09-27T04:02:19.759Z,3.53
2018-09-27T04:04:47.914Z,3.57
2018-09-27T04:07:21.167Z,4.00
2018-09-27T04:09:49.610Z,5.00
2018-09-27T04:12:17.834Z,6.30
2018-09-27T04:14:46.020Z,6.37
2018-09-27T04:17:14.195Z,5.73
2018-09-27T04:19:44.290Z,6.17
2018-09-27T04:22:13.429Z,5.83
2018-09-27T04:24:41.623Z,5.63
2018-09-27T04:27:09.806Z,5.97
2018-09-27T04:29:37.987Z,5.47
2018-09-27T04:32:06.165Z,5.00
2018-09-27T04:34:34.385Z,5.20
2018-09-27T04:37:02.578Z,4.57
2018-09-27T04:39:30.890Z,4.20
2018-09-27T04:41:59.065Z,4.70
2018-09-27T04:44:27.243Z,3.77
2018-09-27T04:46:55.486Z,4.10
2018-09-27T04:49:23.731Z,4.13
2018-09-27T04:51:51.943Z,4.27
2018-09-27T04:54:20.143Z,5.03
2018-09-27T04:56:49.098Z,5.37
2018-09-27T04:59:17.318Z,5.37
2018-09-27T05:01:45.621Z,5.20
2018-09-27T05:04:13.794Z,5.03
2018-09-27T05:06:41.988Z,5.37
2018-09-27T05:09:10.258Z,4.93
2018-09-27T05:11:39.330Z,4.33
2018-09-27T05:14:07.912Z,4.40
2018-09-27T05:16:36.083Z,4.37
2018-09-27T05:19:05.294Z,5.00
2018-09-27T05:21:33.753Z,5.50
2018-09-27T05:24:01.966Z,5.47
2018-09-27T05:26:32.097Z,5.40
2018-09-27T05:29:00.320Z,6.30
2018-09-27T05:31:28.501Z,5.30
2018-09-27T05:33:56.702Z,6.20
2018-09-27T05:36:25.165Z,5.80
2018-09-27T05:38:53.628Z,5.73
2018-09-27T05:41:21.787Z,5.50
2018-09-27T05:43:50.836Z,4.80
2018-09-27T05:46:18.998Z,4.87
2018-09-27T05:48:47.218Z,5.20
2018-09-27T05:51:15.629Z,5.13
2018-09-27T05:53:43.806Z,5.23
2018-09-27T05:56:12.027Z,5.90
2018-09-27T05:58:40.190Z,5.20
2018-09-27T06:01:08.427Z,5.50
2018-09-27T06:03:36.643Z,5.00
2018-09-27T06:06:05.696Z,5.50
2018-09-27T06:08:34.810Z,6.13
2018-09-27T06:11:03.000Z,5.83
2018-09-27T06:13:33.815Z,5.20
2018-09-27T06:16:02.006Z,6.73
2018-09-27T06:18:30.218Z,5.20
2018-09-27T06:20:58.517Z,4.43
2018-09-27T06:23:27.577Z,3.50
2018-09-27T06:25:55.778Z,2.97
2018-09-27T06:28:23.918Z,2.77
2018-09-27T06:30:59.146Z,2.80
2018-09-27T06:33:27.395Z,2.40
2018-09-27T06:35:57.547Z,2.40
2018-09-27T06:38:32.107Z,2.27
2018-09-27T06:41:00.759Z,2.20
2018-09-27T06:43:29.730Z,2.50
2018-09-27T06:45:58.189Z,2.43
2018-09-27T06:48:26.939Z,2.80
2018-09-27T06:50:55.378Z,2.77
2018-09-27T06:53:23.584Z,2.87
2018-09-27T06:55:51.861Z,3.23
2018-09-27T06:58:19.942Z,3.20
2018-09-27T07:00:48.183Z,3.00
2018-09-27T07:03:16.427Z,3.10
2018-09-27T07:05:45.447Z,3.43
2018-09-27T07:08:13.638Z,3.00
2018-09-27T07:10:42.642Z,3.20
2018-09-27T07:13:10.842Z,2.80
2018-09-27T07:15:39.048Z,2.98
2018-09-27T07:18:07.223Z,3.90
2018-09-27T07:20:35.412Z,3.85
2018-09-27T07:23:03.830Z,3.77
2018-09-27T07:25:32.012Z,3.95
2018-09-27T07:28:00.430Z,3.62
2018-09-27T07:30:28.680Z,4.03
2018-09-27T07:32:56.830Z,4.17
2018-09-27T07:38:08.138Z,4.35
2018-09-27T07:40:36.379Z,4.20
2018-09-27T07:43:05.550Z,4.50
2018-09-27T07:45:33.749Z,5.08
2018-09-27T07:48:01.942Z,4.67
2018-09-27T07:50:30.168Z,5.22
2018-09-27T07:52:58.299Z,4.40
2018-09-27T07:55:27.255Z,5.17
2018-09-27T07:57:55.466Z,4.53
2018-09-27T08:00:23.694Z,4.78
2018-09-27T08:02:51.937Z,5.72
2018-09-27T08:05:20.767Z,5.05
2018-09-27T08:07:48.959Z,5.00
2018-09-27T08:10:17.142Z,4.55
2018-09-27T08:12:45.322Z,4.70
2018-09-27T08:15:13.506Z,5.03
2018-09-27T08:17:41.703Z,4.83
2018-09-27T08:20:09.889Z,5.00
2018-09-27T08:22:38.102Z,4.85
2018-09-27T08:25:06.366Z,4.85
2018-09-27T08:27:34.606Z,5.37
2018-09-27T08:30:02.895Z,5.28
2018-09-27T08:32:31.251Z,5.45
2018-09-27T08:34:59.554Z,5.30
2018-09-27T08:37:27.726Z,4.78
2018-09-27T08:39:55.938Z,5.42
2018-09-27T08:42:24.720Z,4.70
2018-09-27T08:44:52.933Z,4.33
2018-09-27T08:47:21.054Z,5.10
2018-09-27T08:49:49.263Z,4.80
2018-09-27T08:52:17.461Z,4.20
2018-09-27T08:54:46.299Z,4.45
2018-09-27T08:57:14.890Z,5.55
2018-09-27T08:59:43.242Z,4.75
2018-09-27T09:02:11.954Z,4.42
2018-09-27T09:04:40.130Z,4.87
2018-09-27T09:07:09.270Z,5.20
2018-09-27T09:09:37.486Z,5.10
2018-09-27T09:12:05.720Z,4.97
2018-09-27T09:14:34.494Z,5.17
2018-09-27T09:17:02.701Z,4.75
2018-09-27T09:19:30.936Z,5.12
2018-09-27T09:21:59.119Z,5.42
2018-09-27T09:24:27.367Z,5.67
2018-09-27T09:26:55.511Z,5.17
2018-09-27T09:29:23.682Z,4.80
2018-09-27T09:31:51.856Z,5.20
2018-09-27T09:34:20.710Z,4.50
2018-09-27T09:36:48.870Z,4.92
2018-09-27T09:39:17.042Z,5.42
2018-09-27T09:41:45.270Z,5.17
2018-09-27T09:44:13.463Z,4.95
2018-09-27T09:46:41.684Z,5.55
2018-09-27T09:49:09.872Z,5.08
2018-09-27T09:51:38.050Z,5.72
2018-09-27T09:54:08.247Z,5.70
2018-09-27T09:56:36.439Z,5.33
2018-09-27T09:59:04.658Z,5.30
2018-09-27T10:01:32.887Z,6.00
2018-09-27T10:04:01.195Z,5.53
2018-09-27T10:06:30.022Z,6.00
2018-09-27T10:08:58.226Z,5.97
2018-09-27T10:11:26.414Z,6.35
2018-09-27T10:14:00.578Z,6.22
2018-09-27T10:16:28.805Z,6.00
2018-09-27T10:18:56.997Z,6.40
2018-09-27T10:21:25.513Z,6.37
2018-09-27T10:23:53.716Z,6.10
2018-09-27T10:26:22.675Z,6.08
2018-09-27T10:28:50.887Z,6.08
2018-09-27T10:31:19.707Z,6.47
2018-09-27T10:33:47.885Z,6.10
2018-09-27T10:36:16.213Z,6.17
2018-09-27T10:38:44.967Z,6.60
2018-09-27T10:41:13.134Z,5.97
2018-09-27T10:43:42.067Z,5.83
2018-09-27T10:46:10.334Z,6.22
2018-09-27T10:48:38.518Z,5.62
2018-09-27T10:51:06.899Z,5.83
2018-09-27T10:53:35.250Z,5.45
2018-09-27T10:56:05.286Z,5.53
2018-09-27T10:58:33.446Z,5.37
2018-09-27T11:01:12.850Z,5.62
2018-09-27T11:03:41.588Z,6.33
2018-09-27T11:06:09.770Z,6.50
2018-09-27T11:08:37.975Z,7.20
2018-09-27T11:11:06.872Z,6.03
2018-09-27T11:13:35.025Z,6.92
2018-09-27T11:16:03.282Z,7.10
2018-09-27T11:18:31.447Z,7.17
2018-09-27T11:20:59.601Z,6.25
2018-09-27T11:23:27.997Z,6.95
2018-09-27T11:25:56.181Z,6.40
2018-09-27T11:28:24.389Z,7.37
2018-09-27T11:30:58.030Z,6.80
2018-09-27T11:33:26.234Z,5.95
2018-09-27T11:35:54.421Z,7.50
2018-09-27T11:38:22.622Z,6.70
2018-09-27T11:40:51.242Z,7.92
2018-09-27T11:43:19.429Z,7.83
2018-09-27T11:45:47.795Z,7.30
2018-09-27T11:48:16.320Z,6.33
2018-09-27T11:50:44.461Z,6.62
2018-09-27T11:53:12.700Z,7.75
2018-09-27T11:55:40.957Z,7.42
2018-09-27T11:58:09.126Z,6.92
2018-09-27T12:00:37.521Z,6.00
2018-09-27T12:03:06.266Z,6.20
2018-09-27T12:05:34.931Z,8.23
2018-09-27T12:08:03.142Z,6.97
2018-09-27T12:10:31.555Z,6.05
2018-09-27T12:13:00.330Z,8.03
2018-09-27T12:15:29.378Z,7.97
2018-09-27T12:18:03.694Z,7.20
2018-09-27T12:20:33.814Z,6.10
2018-09-27T12:23:03.394Z,7.58
2018-09-27T12:25:32.124Z,7.87
2018-09-27T12:28:01.002Z,6.67
2018-09-27T12:30:29.235Z,6.62
2018-09-27T12:32:58.162Z,7.12
2018-09-27T12:35:26.358Z,6.55
2018-09-27T12:37:55.457Z,6.40
2018-09-27T12:40:24.499Z,6.65
2018-09-27T12:42:52.972Z,5.60
2018-09-27T12:45:21.160Z,5.70
2018-09-27T12:47:49.395Z,5.30
2018-09-27T12:50:17.526Z,4.55
2018-09-27T12:52:45.791Z,4.62
2018-09-27T12:55:14.074Z,4.35
2018-09-27T12:57:42.316Z,4.10
2018-09-27T13:00:10.522Z,5.40
2018-09-27T13:02:38.793Z,5.72
2018-09-27T13:05:07.862Z,5.05
2018-09-27T13:07:36.047Z,5.20
2018-09-27T13:10:04.426Z,5.42
2018-09-27T13:12:32.969Z,4.58
2018-09-27T13:15:03.853Z,4.70
2018-09-27T13:17:32.023Z,4.78
2018-09-27T13:20:00.303Z,5.03
2018-09-27T13:22:28.354Z,4.05
2018-09-27T13:24:56.517Z,4.65
2018-09-27T13:27:24.707Z,5.25
2018-09-27T13:29:52.901Z,5.25
2018-09-27T13:32:21.309Z,4.42
2018-09-27T13:34:49.494Z,4.00
2018-09-27T13:37:17.695Z,3.75
2018-09-27T13:39:46.016Z,3.67
2018-09-27T13:42:14.265Z,3.67
2018-09-27T13:44:42.471Z,4.28
2018-09-27T13:47:10.716Z,4.05
2018-09-27T13:49:39.670Z,4.00
2018-09-27T13:52:08.330Z,3.55
2018-09-27T13:54:36.958Z,4.35
2018-09-27T13:57:05.231Z,4.30
2018-09-27T13:59:34.309Z,4.30
2018-09-27T14:02:02.508Z,4.47
2018-09-27T14:04:30.842Z,4.95
2018-09-27T14:06:59.100Z,4.20
2018-09-27T14:09:27.288Z,4.65
2018-09-27T14:11:55.495Z,4.90
2018-09-27T14:14:23.860Z,5.12
2018-09-27T14:16:53.487Z,4.67
2018-09-27T14:19:21.654Z,4.15
2018-09-27T14:21:50.242Z,4.35
2018-09-27T14:24:18.424Z,4.03
2018-09-27T14:26:46.768Z,4.08
2018-09-27T14:29:14.941Z,4.12
2018-09-27T14:31:43.131Z,3.95
2018-09-27T14:34:11.943Z,3.30
2018-09-27T14:36:40.182Z,3.70
2018-09-27T14:39:09.330Z,3.37
2018-09-27T14:41:37.582Z,3.22
2018-09-27T14:44:12.684Z,3.22
2018-09-27T14:46:40.909Z,3.10
2018-09-27T14:49:09.190Z,3.40
2018-09-27T14:51:37.430Z,3.42
2018-09-27T14:54:05.622Z,3.22
2018-09-27T14:56:33.962Z,3.55
2018-09-27T14:59:02.146Z,3.33
2018-09-27T15:01:30.303Z,3.20
2018-09-27T15:03:58.482Z,2.90
2018-09-27T15:06:26.894Z,3.00
2018-09-27T15:08:55.095Z,2.87
2018-09-27T15:11:23.278Z,2.55
2018-09-27T15:13:51.502Z,2.60
2018-09-27T15:16:20.488Z,2.52
2018-09-27T15:18:48.634Z,2.70
2018-09-27T15:21:16.833Z,2.20
2018-09-27T15:23:45.780Z,2.12
2018-09-27T15:26:13.959Z,2.42
2018-09-27T15:28:42.141Z,2.15
2018-09-27T15:31:10.377Z,1.98
2018-09-27T15:33:40.734Z,2.37
2018-09-27T15:36:08.922Z,2.27
2018-09-27T15:38:37.133Z,2.05
2018-09-27T15:41:05.382Z,1.92
2018-09-27T15:43:33.680Z,2.02
2018-09-27T15:46:01.877Z,2.17
2018-09-27T15:48:31.950Z,2.55
2018-09-27T15:51:00.638Z,1.92
2018-09-27T15:53:28.896Z,2.10
2018-09-27T15:55:57.086Z,1.85
2018-09-27T15:58:25.292Z,2.02
2018-09-27T16:00:53.498Z,2.30
2018-09-27T16:03:21.722Z,1.80
2018-09-27T16:05:49.927Z,2.30
2018-09-27T16:08:18.528Z,2.20
2018-09-27T16:10:46.758Z,2.10
2018-09-27T16:13:14.935Z,2.37
2018-09-27T16:15:43.603Z,2.50
2018-09-27T16:18:11.743Z,2.08
2018-09-27T16:20:40.705Z,2.80
2018-09-27T16:23:09.310Z,2.60
2018-09-27T16:25:37.470Z,2.60
2018-09-27T16:28:05.629Z,2.20
2018-09-27T16:30:33.804Z,2.90
2018-09-27T16:33:01.970Z,2.40
2018-09-27T16:35:30.279Z,2.25
2018-09-27T16:37:59.098Z,2.27
2018-09-27T16:40:27.299Z,2.52
2018-09-27T16:42:55.419Z,2.22
2018-09-27T16:45:24.027Z,2.50
2018-09-27T16:47:52.435Z,2.70
2018-09-27T16:50:20.584Z,2.65
2018-09-27T16:52:48.742Z,2.27
2018-09-27T16:55:16.971Z,2.50
2018-09-27T16:57:45.263Z,2.62
2018-09-27T17:00:13.443Z,2.52
2018-09-27T17:02:41.915Z,2.33
2018-09-27T17:05:10.046Z,2.50
2018-09-27T17:07:38.225Z,2.40
2018-09-27T17:10:06.602Z,2.20
2018-09-27T17:12:34.973Z,2.07
2018-09-27T17:15:03.157Z,2.47
2018-09-27T17:17:32.305Z,2.90
2018-09-27T17:20:01.167Z,2.20
2018-09-27T17:22:29.378Z,2.20
2018-09-27T17:24:58.188Z,2.43
2018-09-27T17:27:26.766Z,2.87
2018-09-27T17:29:54.982Z,2.73
2018-09-27T17:32:23.179Z,2.40
2018-09-27T17:34:51.382Z,2.40
2018-09-27T17:37:20.262Z,2.80
2018-09-27T17:39:48.707Z,3.70
2018-09-27T17:42:16.921Z,2.80
2018-09-27T17:44:45.936Z,2.90
2018-09-27T17:47:14.447Z,2.60
2018-09-27T17:49:42.657Z,3.00
2018-09-27T17:52:10.806Z,3.07
2018-09-27T17:54:46.038Z,4.13
2018-09-27T17:57:17.728Z,3.70
2018-09-27T17:59:45.911Z,4.10
2018-09-27T18:02:14.106Z,3.63
2018-09-27T18:04:42.795Z,3.37
2018-09-27T18:07:10.853Z,3.37
2018-09-27T18:09:39.036Z,3.40
2018-09-27T18:12:07.518Z,3.50
2018-09-27T18:14:35.943Z,3.63
2018-09-27T18:17:04.155Z,3.07
2018-09-27T18:19:32.518Z,3.33
2018-09-27T18:22:00.657Z,3.70
2018-09-27T18:24:29.302Z,4.13
2018-09-27T18:26:57.517Z,3.50
2018-09-27T18:29:25.722Z,3.13
2018-09-27T18:31:53.951Z,3.70
2018-09-27T18:34:22.120Z,3.50
2018-09-27T18:36:50.298Z,4.00
2018-09-27T18:39:18.474Z,3.67
2018-09-27T18:41:46.663Z,3.10
2018-09-27T18:44:14.854Z,3.73
2018-09-27T18:46:43.076Z,3.40
2018-09-27T18:49:11.499Z,3.53
2018-09-27T18:51:40.928Z,3.07
2018-09-27T18:54:09.174Z,3.60
2018-09-27T18:56:37.882Z,3.27
2018-09-27T18:59:06.197Z,4.17
2018-09-27T19:01:34.395Z,3.93
2018-09-27T19:04:02.574Z,4.40
2018-09-27T19:06:30.865Z,5.07
2018-09-27T19:08:59.167Z,5.63
2018-09-27T19:11:27.386Z,5.83
2018-09-27T19:13:55.622Z,5.20
2018-09-27T19:16:23.806Z,5.23
2018-09-27T19:18:52.920Z,4.87
2018-09-27T19:21:21.098Z,5.13
2018-09-27T19:23:49.270Z,5.80
2018-09-27T19:26:17.442Z,5.50
2018-09-27T19:28:45.698Z,5.40
2018-09-27T19:31:13.960Z,6.43
2018-09-27T19:33:42.438Z,5.23
2018-09-27T19:36:10.608Z,5.23
2018-09-27T19:38:38.778Z,4.83
2018-09-27T19:41:06.993Z,5.97
2018-09-27T19:43:35.163Z,5.00
2018-09-27T19:46:04.226Z,5.47
2018-09-27T19:48:32.715Z,5.67
2018-09-27T19:51:01.254Z,5.10
2018-09-27T19:53:30.207Z,4.57
2018-09-27T19:55:58.506Z,5.40
2018-09-27T19:58:27.257Z,5.40
2018-09-27T20:00:55.398Z,5.27
2018-09-27T20:03:25.544Z,5.53
2018-09-27T20:05:53.731Z,5.37
2018-09-27T20:08:22.306Z,5.30
2018-09-27T20:10:56.894Z,7.13
2018-09-27T20:13:26.891Z,5.80
2018-09-27T20:15:56.598Z,5.90
2018-09-27T20:18:25.238Z,5.80
2018-09-27T20:20:53.483Z,5.30
2018-09-27T20:23:21.678Z,5.53
2018-09-27T20:25:49.906Z,5.63
2018-09-27T20:28:18.109Z,5.30
2018-09-27T20:30:46.425Z,5.17
2018-09-27T20:33:15.345Z,4.90
2018-09-27T20:35:44.044Z,4.90
2018-09-27T20:38:12.192Z,4.53
2018-09-27T20:40:41.106Z,4.83
2018-09-27T20:43:09.256Z,4.73
2018-09-27T20:45:37.442Z,5.00
2018-09-27T20:48:05.636Z,5.03
2018-09-27T20:50:33.866Z,5.30
2018-09-27T20:53:02.098Z,5.40
2018-09-27T20:55:32.001Z,5.27
2018-09-27T20:58:00.702Z,4.70
2018-09-27T21:00:29.003Z,5.43
2018-09-27T21:02:58.041Z,5.53
2018-09-27T21:05:26.217Z,4.63
2018-09-27T21:07:54.386Z,4.80
2018-09-27T21:10:22.556Z,6.53
2018-09-27T21:12:50.930Z,5.17
2018-09-27T21:15:19.122Z,5.50
2018-09-27T21:17:48.276Z,5.00
2018-09-27T21:20:16.686Z,4.97
2018-09-27T21:22:44.862Z,5.10
2018-09-27T21:25:13.395Z,4.90
2018-09-27T21:27:43.070Z,4.60
2018-09-27T21:30:11.279Z,5.80
2018-09-27T21:32:40.393Z,5.20
2018-09-27T21:35:08.601Z,5.53
2018-09-27T21:37:36.782Z,5.00
2018-09-27T21:40:05.439Z,4.57
2018-09-27T21:42:33.659Z,5.47
2018-09-27T21:45:02.539Z,5.40
2018-09-27T21:47:30.710Z,4.77
2018-09-27T21:49:58.998Z,4.87
2018-09-27T21:52:27.062Z,5.23
2018-09-27T21:54:55.370Z,4.83
2018-09-27T21:57:24.981Z,5.03
2018-09-27T21:59:54.638Z,5.40
2018-09-27T22:02:22.823Z,5.70
2018-09-27T22:04:51.057Z,5.07
2018-09-27T22:07:19.235Z,5.43
2018-09-27T22:09:47.522Z,5.83
2018-09-27T22:12:15.744Z,5.63
2018-09-27T22:14:43.929Z,5.37
2018-09-27T22:17:12.835Z,5.37
2018-09-27T22:19:41.194Z,5.73
2018-09-27T22:22:09.373Z,5.43
2018-09-27T22:24:37.569Z,5.60
2018-09-27T22:27:05.810Z,5.03
2018-09-27T22:29:33.977Z,5.57
2018-09-27T22:32:02.170Z,5.23
2018-09-27T22:34:37.206Z,5.27
2018-09-27T22:37:05.446Z,5.27
2018-09-27T22:39:33.594Z,5.80
2018-09-27T22:42:03.055Z,5.77
2018-09-27T22:44:31.314Z,4.73
2018-09-27T22:46:59.793Z,4.80
2018-09-27T22:49:29.106Z,4.67
2018-09-27T22:51:57.314Z,4.70
2018-09-27T22:54:25.487Z,5.20
2018-09-27T22:56:53.886Z,4.40
2018-09-27T22:59:22.878Z,4.73
2018-09-27T23:01:54.578Z,4.77
2018-09-27T23:04:23.082Z,5.10
2018-09-27T23:06:51.235Z,5.10
2018-09-27T23:09:20.571Z,4.60
2018-09-27T23:11:48.926Z,4.33
2018-09-27T23:14:17.122Z,4.77
2018-09-27T23:16:45.332Z,4.67
2018-09-27T23:19:13.510Z,4.80
2018-09-27T23:21:41.717Z,4.33
2018-09-27T23:24:09.902Z,4.87
2018-09-27T23:26:38.122Z,4.93
2018-09-27T23:29:06.290Z,5.47
2018-09-27T23:31:34.471Z,5.63
2018-09-27T23:34:02.686Z,5.57
2018-09-27T23:36:30.929Z,6.00
2018-09-27T23:38:59.206Z,5.60
2018-09-27T23:41:27.370Z,5.40
2018-09-27T23:43:55.560Z,5.87
2018-09-27T23:46:23.717Z,5.93
2018-09-27T23:48:51.894Z,5.50
2018-09-27T23:51:20.098Z,6.30
2018-09-27T23:53:55.090Z,5.30
2018-09-27T23:56:25.053Z,5.57
2018-09-27T23:58:53.264Z,5.50
